sensor_id;sensor_type;location;lat;lon;timestamp;P1;durP1;ratioP1;P2;durP2;ratioP2
46729;SDS011;32476;50.002;11.854;2023-12-20T00:01:04;4.13;;;2.97;;
46729;SDS011;32476;50.002;11.854;2023-12-20T00:03:30;3.73;;;2.77;;
46729;SDS011;32476;50.002;11.854;2023-12-20T00:05:58;4.03;;;2.93;;
46729;SDS011;32476;50.002;11.854;2023-12-20T00:08:24;4.63;;;3.40;;
46729;SDS011;32476;50.002;11.854;2023-12-20T00:10:50;3.43;;;2.77;;
46729;SDS011;32476;50.002;11.854;2023-12-20T00:13:17;4.23;;;2.80;;
46729;SDS011;32476;50.002;11.854;2023-12-20T00:15:43;3.60;;;2.67;;
46729;SDS011;32476;50.002;11.854;2023-12-20T00:18:09;3.17;;;2.43;;
46729;SDS011;32476;50.002;11.854;2023-12-20T00:20:36;3.07;;;2.27;;
46729;SDS011;32476;50.002;11.854;2023-12-20T00:23:02;3.33;;;2.70;;
46729;SDS011;32476;50.002;11.854;2023-12-20T00:25:28;3.87;;;2.53;;
46729;SDS011;32476;50.002;11.854;2023-12-20T00:27:56;3.60;;;2.83;;
46729;SDS011;32476;50.002;11.854;2023-12-20T00:30:22;3.73;;;2.90;;
46729;SDS011;32476;50.002;11.854;2023-12-20T00:32:48;4.23;;;3.13;;
46729;SDS011;32476;50.002;11.854;2023-12-20T00:35:16;6.03;;;3.50;;
46729;SDS011;32476;50.002;11.854;2023-12-20T00:37:42;4.40;;;3.10;;
46729;SDS011;32476;50.002;11.854;2023-12-20T00:40:08;5.10;;;3.33;;
46729;SDS011;32476;50.002;11.854;2023-12-20T00:42:36;4.67;;;3.40;;
46729;SDS011;32476;50.002;11.854;2023-12-20T00:45:02;5.47;;;3.73;;
46729;SDS011;32476;50.002;11.854;2023-12-20T00:47:30;4.53;;;3.33;;
46729;SDS011;32476;50.002;11.854;2023-12-20T00:49:58;3.93;;;2.63;;
46729;SDS011;32476;50.002;11.854;2023-12-20T00:52:24;3.27;;;2.80;;
46729;SDS011;32476;50.002;11.854;2023-12-20T00:54:50;3.07;;;2.30;;
46729;SDS011;32476;50.002;11.854;2023-12-20T00:57:18;2.47;;;1.97;;
46729;SDS011;32476;50.002;11.854;2023-12-20T00:59:44;2.77;;;2.20;;
46729;SDS011;32476;50.002;11.854;2023-12-20T01:02:10;2.70;;;1.93;;
46729;SDS011;32476;50.002;11.854;2023-12-20T01:04:38;2.00;;;1.80;;
46729;SDS011;32476;50.002;11.854;2023-12-20T01:07:04;2.20;;;1.80;;
46729;SDS011;32476;50.002;11.854;2023-12-20T01:09:30;1.83;;;1.63;;
46729;SDS011;32476;50.002;11.854;2023-12-20T01:11:57;2.80;;;1.87;;
46729;SDS011;32476;50.002;11.854;2023-12-20T01:14:23;2.37;;;1.60;;
46729;SDS011;32476;50.002;11.854;2023-12-20T01:16:49;1.50;;;1.40;;
46729;SDS011;32476;50.002;11.854;2023-12-20T01:19:17;1.90;;;1.43;;
46729;SDS011;32476;50.002;11.854;2023-12-20T01:21:43;1.30;;;1.20;;
46729;SDS011;32476;50.002;11.854;2023-12-20T01:24:08;1.60;;;1.50;;
46729;SDS011;32476;50.002;11.854;2023-12-20T01:26:36;1.77;;;1.20;;
46729;SDS011;32476;50.002;11.854;2023-12-20T01:29:02;2.03;;;1.40;;
46729;SDS011;32476;50.002;11.854;2023-12-20T01:31:28;1.37;;;1.20;;
46729;SDS011;32476;50.002;11.854;2023-12-20T01:33:56;1.20;;;1.10;;
46729;SDS011;32476;50.002;11.854;2023-12-20T01:36:22;1.20;;;1.10;;
46729;SDS011;32476;50.002;11.854;2023-12-20T01:38:48;1.80;;;1.17;;
46729;SDS011;32476;50.002;11.854;2023-12-20T01:41:16;1.73;;;1.20;;
46729;SDS011;32476;50.002;11.854;2023-12-20T01:43:42;1.27;;;1.17;;
46729;SDS011;32476;50.002;11.854;2023-12-20T01:46:08;1.57;;;1.37;;
46729;SDS011;32476;50.002;11.854;2023-12-20T01:48:37;3.83;;;1.50;;
46729;SDS011;32476;50.002;11.854;2023-12-20T01:51:04;1.47;;;1.33;;
46729;SDS011;32476;50.002;11.854;2023-12-20T01:53:30;1.60;;;1.50;;
46729;SDS011;32476;50.002;11.854;2023-12-20T01:55:59;1.63;;;1.30;;
46729;SDS011;32476;50.002;11.854;2023-12-20T01:58:25;1.30;;;1.20;;
46729;SDS011;32476;50.002;11.854;2023-12-20T02:00:52;1.20;;;1.10;;
46729;SDS011;32476;50.002;11.854;2023-12-20T02:03:20;1.30;;;1.20;;
46729;SDS011;32476;50.002;11.854;2023-12-20T02:05:46;1.40;;;1.10;;
46729;SDS011;32476;50.002;11.854;2023-12-20T02:08:13;1.50;;;1.20;;
46729;SDS011;32476;50.002;11.854;2023-12-20T02:10:40;2.20;;;1.50;;
46729;SDS011;32476;50.002;11.854;2023-12-20T02:13:07;0.97;;;0.97;;
46729;SDS011;32476;50.002;11.854;2023-12-20T02:15:33;2.67;;;1.03;;
46729;SDS011;32476;50.002;11.854;2023-12-20T02:18:00;1.20;;;1.03;;
46729;SDS011;32476;50.002;11.854;2023-12-20T02:20:26;1.47;;;1.20;;
46729;SDS011;32476;50.002;11.854;2023-12-20T02:22:52;1.73;;;1.13;;
46729;SDS011;32476;50.002;11.854;2023-12-20T02:25:19;1.00;;;0.90;;
46729;SDS011;32476;50.002;11.854;2023-12-20T02:27:45;1.03;;;0.90;;
46729;SDS011;32476;50.002;11.854;2023-12-20T02:30:12;1.00;;;0.90;;
46729;SDS011;32476;50.002;11.854;2023-12-20T02:32:39;1.10;;;1.00;;
46729;SDS011;32476;50.002;11.854;2023-12-20T02:35:05;0.77;;;0.77;;
46729;SDS011;32476;50.002;11.854;2023-12-20T02:37:32;1.10;;;0.93;;
46729;SDS011;32476;50.002;11.854;2023-12-20T02:40:00;0.80;;;0.77;;
46729;SDS011;32476;50.002;11.854;2023-12-20T02:42:26;1.03;;;0.87;;
46729;SDS011;32476;50.002;11.854;2023-12-20T02:44:52;0.70;;;0.70;;
46729;SDS011;32476;50.002;11.854;2023-12-20T02:47:19;1.07;;;0.97;;
46729;SDS011;32476;50.002;11.854;2023-12-20T02:49:45;0.80;;;0.80;;
46729;SDS011;32476;50.002;11.854;2023-12-20T02:52:11;1.17;;;1.07;;
46729;SDS011;32476;50.002;11.854;2023-12-20T02:54:38;1.63;;;1.30;;
46729;SDS011;32476;50.002;11.854;2023-12-20T02:57:04;1.40;;;1.10;;
46729;SDS011;32476;50.002;11.854;2023-12-20T02:59:31;1.50;;;0.97;;
46729;SDS011;32476;50.002;11.854;2023-12-20T03:01:58;1.00;;;0.90;;
46729;SDS011;32476;50.002;11.854;2023-12-20T03:04:24;0.97;;;0.93;;
46729;SDS011;32476;50.002;11.854;2023-12-20T03:06:50;0.63;;;0.60;;
46729;SDS011;32476;50.002;11.854;2023-12-20T03:09:18;0.93;;;0.80;;
46729;SDS011;32476;50.002;11.854;2023-12-20T03:11:43;0.80;;;0.70;;
46729;SDS011;32476;50.002;11.854;2023-12-20T03:14:09;0.60;;;0.60;;
46729;SDS011;32476;50.002;11.854;2023-12-20T03:16:37;0.57;;;0.50;;
46729;SDS011;32476;50.002;11.854;2023-12-20T03:19:03;0.80;;;0.80;;
46729;SDS011;32476;50.002;11.854;2023-12-20T03:21:29;0.50;;;0.50;;
46729;SDS011;32476;50.002;11.854;2023-12-20T03:23:56;0.50;;;0.50;;
46729;SDS011;32476;50.002;11.854;2023-12-20T03:26:22;0.80;;;0.57;;
46729;SDS011;32476;50.002;11.854;2023-12-20T03:28:48;0.50;;;0.50;;
46729;SDS011;32476;50.002;11.854;2023-12-20T03:31:15;2.10;;;0.60;;
46729;SDS011;32476;50.002;11.854;2023-12-20T03:33:41;0.67;;;0.67;;
46729;SDS011;32476;50.002;11.854;2023-12-20T03:36:07;0.50;;;0.50;;
46729;SDS011;32476;50.002;11.854;2023-12-20T03:38:35;0.50;;;0.50;;
46729;SDS011;32476;50.002;11.854;2023-12-20T03:41:01;0.60;;;0.60;;
46729;SDS011;32476;50.002;11.854;2023-12-20T03:43:27;0.60;;;0.60;;
46729;SDS011;32476;50.002;11.854;2023-12-20T03:45:54;0.50;;;0.50;;
46729;SDS011;32476;50.002;11.854;2023-12-20T03:48:20;1.07;;;0.50;;
46729;SDS011;32476;50.002;11.854;2023-12-20T03:50:46;0.40;;;0.40;;
46729;SDS011;32476;50.002;11.854;2023-12-20T03:53:14;0.50;;;0.50;;
46729;SDS011;32476;50.002;11.854;2023-12-20T03:55:40;0.50;;;0.50;;
46729;SDS011;32476;50.002;11.854;2023-12-20T03:58:05;0.43;;;0.43;;
46729;SDS011;32476;50.002;11.854;2023-12-20T04:00:33;0.40;;;0.40;;
46729;SDS011;32476;50.002;11.854;2023-12-20T04:02:59;0.40;;;0.40;;
46729;SDS011;32476;50.002;11.854;2023-12-20T04:05:25;0.50;;;0.50;;
46729;SDS011;32476;50.002;11.854;2023-12-20T04:07:52;0.40;;;0.40;;
46729;SDS011;32476;50.002;11.854;2023-12-20T04:10:22;0.50;;;0.50;;
46729;SDS011;32476;50.002;11.854;2023-12-20T04:12:48;0.40;;;0.40;;
46729;SDS011;32476;50.002;11.854;2023-12-20T04:15:15;0.50;;;0.50;;
46729;SDS011;32476;50.002;11.854;2023-12-20T04:17:41;0.40;;;0.40;;
46729;SDS011;32476;50.002;11.854;2023-12-20T04:20:07;0.50;;;0.50;;
46729;SDS011;32476;50.002;11.854;2023-12-20T04:22:35;0.40;;;0.40;;
46729;SDS011;32476;50.002;11.854;2023-12-20T04:25:01;0.50;;;0.50;;
46729;SDS011;32476;50.002;11.854;2023-12-20T04:27:27;0.40;;;0.40;;
46729;SDS011;32476;50.002;11.854;2023-12-20T04:29:55;0.47;;;0.47;;
46729;SDS011;32476;50.002;11.854;2023-12-20T04:32:21;0.50;;;0.50;;
46729;SDS011;32476;50.002;11.854;2023-12-20T04:34:46;0.60;;;0.60;;
46729;SDS011;32476;50.002;11.854;2023-12-20T04:37:14;0.50;;;0.50;;
46729;SDS011;32476;50.002;11.854;2023-12-20T04:39:40;0.80;;;0.50;;
46729;SDS011;32476;50.002;11.854;2023-12-20T04:42:07;0.53;;;0.53;;
46729;SDS011;32476;50.002;11.854;2023-12-20T04:44:34;0.50;;;0.50;;
46729;SDS011;32476;50.002;11.854;2023-12-20T04:47:00;0.60;;;0.60;;
46729;SDS011;32476;50.002;11.854;2023-12-20T04:49:26;0.50;;;0.40;;
46729;SDS011;32476;50.002;11.854;2023-12-20T04:51:53;0.50;;;0.50;;
46729;SDS011;32476;50.002;11.854;2023-12-20T04:54:20;0.60;;;0.50;;
46729;SDS011;32476;50.002;11.854;2023-12-20T04:56:46;0.40;;;0.40;;
46729;SDS011;32476;50.002;11.854;2023-12-20T04:59:14;0.40;;;0.40;;
46729;SDS011;32476;50.002;11.854;2023-12-20T05:01:40;0.60;;;0.60;;
46729;SDS011;32476;50.002;11.854;2023-12-20T05:04:06;0.63;;;0.63;;
46729;SDS011;32476;50.002;11.854;2023-12-20T05:06:34;0.87;;;0.63;;
46729;SDS011;32476;50.002;11.854;2023-12-20T05:09:00;0.60;;;0.60;;
46729;SDS011;32476;50.002;11.854;2023-12-20T05:11:25;0.50;;;0.50;;
46729;SDS011;32476;50.002;11.854;2023-12-20T05:13:53;0.60;;;0.60;;
46729;SDS011;32476;50.002;11.854;2023-12-20T05:16:19;1.37;;;0.40;;
46729;SDS011;32476;50.002;11.854;2023-12-20T05:18:46;0.50;;;0.50;;
46729;SDS011;32476;50.002;11.854;2023-12-20T05:21:15;0.40;;;0.40;;
46729;SDS011;32476;50.002;11.854;2023-12-20T05:23:41;0.50;;;0.50;;
46729;SDS011;32476;50.002;11.854;2023-12-20T05:26:07;0.30;;;0.30;;
46729;SDS011;32476;50.002;11.854;2023-12-20T05:28:35;0.50;;;0.40;;
46729;SDS011;32476;50.002;11.854;2023-12-20T05:31:14;1.33;;;0.70;;
46729;SDS011;32476;50.002;11.854;2023-12-20T05:33:41;0.60;;;0.60;;
46729;SDS011;32476;50.002;11.854;2023-12-20T05:36:08;0.80;;;0.80;;
46729;SDS011;32476;50.002;11.854;2023-12-20T05:38:36;2.10;;;0.70;;
46729;SDS011;32476;50.002;11.854;2023-12-20T05:41:04;0.90;;;0.80;;
46729;SDS011;32476;50.002;11.854;2023-12-20T05:43:30;1.17;;;0.80;;
46729;SDS011;32476;50.002;11.854;2023-12-20T05:45:56;6.80;;;1.90;;
46729;SDS011;32476;50.002;11.854;2023-12-20T05:48:24;9.07;;;1.50;;
46729;SDS011;32476;50.002;11.854;2023-12-20T05:50:50;9.80;;;1.73;;
46729;SDS011;32476;50.002;11.854;2023-12-20T05:53:16;17.93;;;2.23;;
46729;SDS011;32476;50.002;11.854;2023-12-20T05:55:44;2.87;;;1.60;;
46729;SDS011;32476;50.002;11.854;2023-12-20T05:58:10;9.37;;;1.80;;
46729;SDS011;32476;50.002;11.854;2023-12-20T06:00:35;44.37;;;3.77;;
46729;SDS011;32476;50.002;11.854;2023-12-20T06:03:03;9.60;;;2.37;;
46729;SDS011;32476;50.002;11.854;2023-12-20T06:05:30;7.43;;;2.50;;
46729;SDS011;32476;50.002;11.854;2023-12-20T06:07:56;16.47;;;2.23;;
46729;SDS011;32476;50.002;11.854;2023-12-20T06:10:28;12.67;;;2.07;;
46729;SDS011;32476;50.002;11.854;2023-12-20T06:12:54;40.63;;;4.63;;
46729;SDS011;32476;50.002;11.854;2023-12-20T06:15:21;5.63;;;1.83;;
46729;SDS011;32476;50.002;11.854;2023-12-20T06:17:49;4.90;;;1.30;;
46729;SDS011;32476;50.002;11.854;2023-12-20T06:23:15;1.80;;;1.20;;
46729;SDS011;32476;50.002;11.854;2023-12-20T06:25:41;1.33;;;1.10;;
46729;SDS011;32476;50.002;11.854;2023-12-20T06:28:16;1.83;;;1.03;;
46729;SDS011;32476;50.002;11.854;2023-12-20T06:30:43;0.90;;;0.90;;
46729;SDS011;32476;50.002;11.854;2023-12-20T06:33:09;1.43;;;1.10;;
46729;SDS011;32476;50.002;11.854;2023-12-20T06:35:36;1.00;;;0.90;;
46729;SDS011;32476;50.002;11.854;2023-12-20T06:38:04;1.27;;;0.93;;
46729;SDS011;32476;50.002;11.854;2023-12-20T06:40:30;0.80;;;0.80;;
46729;SDS011;32476;50.002;11.854;2023-12-20T06:42:55;0.80;;;0.80;;
46729;SDS011;32476;50.002;11.854;2023-12-20T06:45:23;1.00;;;0.80;;
46729;SDS011;32476;50.002;11.854;2023-12-20T06:47:49;1.30;;;0.80;;
46729;SDS011;32476;50.002;11.854;2023-12-20T06:50:15;1.60;;;1.00;;
46729;SDS011;32476;50.002;11.854;2023-12-20T06:52:43;1.47;;;1.10;;
46729;SDS011;32476;50.002;11.854;2023-12-20T06:55:09;1.10;;;0.80;;
46729;SDS011;32476;50.002;11.854;2023-12-20T06:57:35;0.90;;;0.80;;
46729;SDS011;32476;50.002;11.854;2023-12-20T07:00:03;0.70;;;0.70;;
46729;SDS011;32476;50.002;11.854;2023-12-20T07:02:31;0.70;;;0.70;;
46729;SDS011;32476;50.002;11.854;2023-12-20T07:04:56;0.60;;;0.60;;
46729;SDS011;32476;50.002;11.854;2023-12-20T07:07:24;0.60;;;0.60;;
46729;SDS011;32476;50.002;11.854;2023-12-20T07:09:50;1.03;;;0.90;;
46729;SDS011;32476;50.002;11.854;2023-12-20T07:12:16;12.83;;;1.43;;
46729;SDS011;32476;50.002;11.854;2023-12-20T07:14:45;5.37;;;1.40;;
46729;SDS011;32476;50.002;11.854;2023-12-20T07:17:12;145.50;;;9.60;;
46729;SDS011;32476;50.002;11.854;2023-12-20T07:19:40;146.57;;;9.60;;
46729;SDS011;32476;50.002;11.854;2023-12-20T07:22:08;95.53;;;8.47;;
46729;SDS011;32476;50.002;11.854;2023-12-20T07:24:34;181.60;;;11.40;;
46729;SDS011;32476;50.002;11.854;2023-12-20T07:27:00;144.73;;;8.20;;
46729;SDS011;32476;50.002;11.854;2023-12-20T07:29:28;226.47;;;14.03;;
46729;SDS011;32476;50.002;11.854;2023-12-20T07:31:54;290.90;;;17.30;;
46729;SDS011;32476;50.002;11.854;2023-12-20T07:34:20;337.00;;;19.57;;
46729;SDS011;32476;50.002;11.854;2023-12-20T07:36:48;400.73;;;25.37;;
46729;SDS011;32476;50.002;11.854;2023-12-20T07:39:14;353.77;;;25.43;;
46729;SDS011;32476;50.002;11.854;2023-12-20T07:41:40;138.50;;;11.93;;
46729;SDS011;32476;50.002;11.854;2023-12-20T07:44:08;163.47;;;12.47;;
46729;SDS011;32476;50.002;11.854;2023-12-20T07:46:34;204.73;;;16.53;;
46729;SDS011;32476;50.002;11.854;2023-12-20T07:49:05;22.93;;;4.57;;
46729;SDS011;32476;50.002;11.854;2023-12-20T07:51:32;35.43;;;5.47;;
46729;SDS011;32476;50.002;11.854;2023-12-20T07:53:58;5.60;;;3.70;;
46729;SDS011;32476;50.002;11.854;2023-12-20T07:56:24;6.53;;;4.17;;
46729;SDS011;32476;50.002;11.854;2023-12-20T07:58:52;5.50;;;4.20;;
46729;SDS011;32476;50.002;11.854;2023-12-20T08:01:18;5.13;;;4.20;;
46729;SDS011;32476;50.002;11.854;2023-12-20T08:03:44;5.80;;;4.47;;
46729;SDS011;32476;50.002;11.854;2023-12-20T08:06:11;6.70;;;4.53;;
46729;SDS011;32476;50.002;11.854;2023-12-20T08:08:37;5.73;;;4.20;;
46729;SDS011;32476;50.002;11.854;2023-12-20T08:11:03;7.87;;;4.47;;
46729;SDS011;32476;50.002;11.854;2023-12-20T08:13:31;8.03;;;4.30;;
46729;SDS011;32476;50.002;11.854;2023-12-20T08:15:56;6.77;;;4.20;;
46729;SDS011;32476;50.002;11.854;2023-12-20T08:18:22;9.97;;;4.90;;
46729;SDS011;32476;50.002;11.854;2023-12-20T08:20:50;6.70;;;4.33;;
46729;SDS011;32476;50.002;11.854;2023-12-20T08:23:19;7.67;;;4.63;;
46729;SDS011;32476;50.002;11.854;2023-12-20T08:25:46;7.43;;;4.63;;
46729;SDS011;32476;50.002;11.854;2023-12-20T08:28:15;5.50;;;4.10;;
46729;SDS011;32476;50.002;11.854;2023-12-20T08:30:41;8.93;;;4.70;;
46729;SDS011;32476;50.002;11.854;2023-12-20T08:33:07;8.30;;;4.27;;
46729;SDS011;32476;50.002;11.854;2023-12-20T08:35:38;7.40;;;4.20;;
46729;SDS011;32476;50.002;11.854;2023-12-20T08:38:05;7.70;;;4.10;;
46729;SDS011;32476;50.002;11.854;2023-12-20T08:40:31;4.77;;;3.90;;
46729;SDS011;32476;50.002;11.854;2023-12-20T08:42:59;6.83;;;4.37;;
46729;SDS011;32476;50.002;11.854;2023-12-20T08:45:25;5.00;;;4.00;;
46729;SDS011;32476;50.002;11.854;2023-12-20T08:47:51;4.57;;;4.03;;
46729;SDS011;32476;50.002;11.854;2023-12-20T08:50:18;6.43;;;4.57;;
46729;SDS011;32476;50.002;11.854;2023-12-20T08:52:44;8.37;;;3.80;;
46729;SDS011;32476;50.002;11.854;2023-12-20T08:55:10;7.37;;;4.77;;
46729;SDS011;32476;50.002;11.854;2023-12-20T08:57:38;7.37;;;4.50;;
46729;SDS011;32476;50.002;11.854;2023-12-20T09:00:10;9.23;;;4.30;;
46729;SDS011;32476;50.002;11.854;2023-12-20T09:02:41;9.37;;;5.07;;
46729;SDS011;32476;50.002;11.854;2023-12-20T09:05:06;10.27;;;5.07;;
46729;SDS011;32476;50.002;11.854;2023-12-20T09:07:33;5.63;;;4.43;;
46729;SDS011;32476;50.002;11.854;2023-12-20T09:10:00;6.63;;;4.57;;
46729;SDS011;32476;50.002;11.854;2023-12-20T09:12:26;7.40;;;4.53;;
46729;SDS011;32476;50.002;11.854;2023-12-20T09:14:53;9.27;;;5.27;;
46729;SDS011;32476;50.002;11.854;2023-12-20T09:17:20;8.00;;;4.70;;
46729;SDS011;32476;50.002;11.854;2023-12-20T09:19:48;8.00;;;4.37;;
46729;SDS011;32476;50.002;11.854;2023-12-20T09:22:14;7.33;;;4.17;;
46729;SDS011;32476;50.002;11.854;2023-12-20T09:24:41;5.63;;;3.93;;
46729;SDS011;32476;50.002;11.854;2023-12-20T09:27:07;6.47;;;4.30;;
46729;SDS011;32476;50.002;11.854;2023-12-20T09:29:33;6.20;;;4.07;;
46729;SDS011;32476;50.002;11.854;2023-12-20T09:32:01;5.20;;;3.77;;
46729;SDS011;32476;50.002;11.854;2023-12-20T09:34:27;5.40;;;3.20;;
46729;SDS011;32476;50.002;11.854;2023-12-20T09:36:54;5.13;;;3.57;;
46729;SDS011;32476;50.002;11.854;2023-12-20T09:39:22;6.30;;;3.20;;
46729;SDS011;32476;50.002;11.854;2023-12-20T09:41:51;5.83;;;3.23;;
46729;SDS011;32476;50.002;11.854;2023-12-20T09:44:30;7.33;;;3.27;;
46729;SDS011;32476;50.002;11.854;2023-12-20T09:46:57;6.40;;;3.67;;
46729;SDS011;32476;50.002;11.854;2023-12-20T09:49:23;8.50;;;3.73;;
46729;SDS011;32476;50.002;11.854;2023-12-20T09:51:53;7.50;;;3.70;;
46729;SDS011;32476;50.002;11.854;2023-12-20T09:54:21;4.93;;;3.20;;
46729;SDS011;32476;50.002;11.854;2023-12-20T09:56:47;4.47;;;3.27;;
46729;SDS011;32476;50.002;11.854;2023-12-20T09:59:15;3.37;;;3.00;;
46729;SDS011;32476;50.002;11.854;2023-12-20T10:01:41;5.63;;;3.60;;
46729;SDS011;32476;50.002;11.854;2023-12-20T10:04:08;6.57;;;3.40;;
46729;SDS011;32476;50.002;11.854;2023-12-20T10:06:39;6.17;;;3.47;;
46729;SDS011;32476;50.002;11.854;2023-12-20T10:09:10;8.23;;;3.27;;
46729;SDS011;32476;50.002;11.854;2023-12-20T10:11:40;8.07;;;3.73;;
46729;SDS011;32476;50.002;11.854;2023-12-20T10:14:07;4.57;;;3.53;;
46729;SDS011;32476;50.002;11.854;2023-12-20T10:16:33;5.70;;;3.63;;
46729;SDS011;32476;50.002;11.854;2023-12-20T10:19:00;6.67;;;3.77;;
46729;SDS011;32476;50.002;11.854;2023-12-20T10:21:30;8.33;;;4.23;;
46729;SDS011;32476;50.002;11.854;2023-12-20T10:23:57;6.20;;;4.20;;
46729;SDS011;32476;50.002;11.854;2023-12-20T10:26:24;5.47;;;4.10;;
46729;SDS011;32476;50.002;11.854;2023-12-20T10:28:54;4.87;;;3.17;;
46729;SDS011;32476;50.002;11.854;2023-12-20T10:31:33;12.70;;;3.83;;
46729;SDS011;32476;50.002;11.854;2023-12-20T10:34:02;8.40;;;3.43;;
46729;SDS011;32476;50.002;11.854;2023-12-20T10:36:32;7.87;;;3.40;;
46729;SDS011;32476;50.002;11.854;2023-12-20T10:38:58;5.87;;;3.57;;
46729;SDS011;32476;50.002;11.854;2023-12-20T10:41:27;4.67;;;3.10;;
46729;SDS011;32476;50.002;11.854;2023-12-20T10:46:34;9.00;;;3.40;;
46729;SDS011;32476;50.002;11.854;2023-12-20T10:49:04;7.40;;;3.70;;
46729;SDS011;32476;50.002;11.854;2023-12-20T10:51:33;7.90;;;3.30;;
46729;SDS011;32476;50.002;11.854;2023-12-20T10:54:01;9.30;;;3.43;;
46729;SDS011;32476;50.002;11.854;2023-12-20T10:56:29;8.27;;;3.43;;
46729;SDS011;32476;50.002;11.854;2023-12-20T10:59:00;5.73;;;3.27;;
46729;SDS011;32476;50.002;11.854;2023-12-20T11:01:30;11.27;;;3.77;;
46729;SDS011;32476;50.002;11.854;2023-12-20T11:03:57;7.20;;;3.00;;
46729;SDS011;32476;50.002;11.854;2023-12-20T11:06:48;5.07;;;3.33;;
46729;SDS011;32476;50.002;11.854;2023-12-20T11:09:24;5.17;;;3.00;;
46729;SDS011;32476;50.002;11.854;2023-12-20T11:12:15;13.47;;;3.50;;
46729;SDS011;32476;50.002;11.854;2023-12-20T11:14:48;11.00;;;3.40;;
46729;SDS011;32476;50.002;11.854;2023-12-20T11:17:18;11.87;;;3.00;;
46729;SDS011;32476;50.002;11.854;2023-12-20T11:25:18;6.40;;;2.80;;
46729;SDS011;32476;50.002;11.854;2023-12-20T11:28:06;7.37;;;3.07;;
46729;SDS011;32476;50.002;11.854;2023-12-20T11:30:40;6.97;;;3.10;;
46729;SDS011;32476;50.002;11.854;2023-12-20T11:33:15;13.90;;;3.30;;
46729;SDS011;32476;50.002;11.854;2023-12-20T11:35:42;6.27;;;3.03;;
46729;SDS011;32476;50.002;11.854;2023-12-20T11:38:12;5.80;;;2.97;;
46729;SDS011;32476;50.002;11.854;2023-12-20T11:40:42;5.40;;;2.80;;
46729;SDS011;32476;50.002;11.854;2023-12-20T11:43:09;6.83;;;3.20;;
46729;SDS011;32476;50.002;11.854;2023-12-20T11:45:35;8.27;;;2.80;;
46729;SDS011;32476;50.002;11.854;2023-12-20T11:48:02;7.03;;;2.73;;
46729;SDS011;32476;50.002;11.854;2023-12-20T11:53:21;8.50;;;3.43;;
46729;SDS011;32476;50.002;11.854;2023-12-20T11:55:48;10.70;;;2.80;;
46729;SDS011;32476;50.002;11.854;2023-12-20T11:58:15;8.57;;;3.20;;
46729;SDS011;32476;50.002;11.854;2023-12-20T12:00:43;12.17;;;3.33;;
46729;SDS011;32476;50.002;11.854;2023-12-20T12:03:09;13.20;;;3.23;;
46729;SDS011;32476;50.002;11.854;2023-12-20T12:05:35;6.80;;;3.00;;
46729;SDS011;32476;50.002;11.854;2023-12-20T12:08:02;7.00;;;3.13;;
46729;SDS011;32476;50.002;11.854;2023-12-20T12:10:30;5.47;;;3.00;;
46729;SDS011;32476;50.002;11.854;2023-12-20T12:12:56;6.33;;;2.63;;
46729;SDS011;32476;50.002;11.854;2023-12-20T12:15:23;6.80;;;3.40;;
46729;SDS011;32476;50.002;11.854;2023-12-20T12:17:53;5.83;;;2.57;;
46729;SDS011;32476;50.002;11.854;2023-12-20T12:20:21;5.30;;;2.47;;
46729;SDS011;32476;50.002;11.854;2023-12-20T12:23:02;8.30;;;4.07;;
46729;SDS011;32476;50.002;11.854;2023-12-20T12:25:31;5.23;;;3.50;;
46729;SDS011;32476;50.002;11.854;2023-12-20T12:28:01;4.37;;;2.57;;
46729;SDS011;32476;50.002;11.854;2023-12-20T12:30:28;7.87;;;3.33;;
46729;SDS011;32476;50.002;11.854;2023-12-20T12:32:56;11.17;;;3.07;;
46729;SDS011;32476;50.002;11.854;2023-12-20T12:35:24;8.17;;;2.93;;
46729;SDS011;32476;50.002;11.854;2023-12-20T12:37:50;6.93;;;3.17;;
46729;SDS011;32476;50.002;11.854;2023-12-20T12:40:16;8.63;;;3.23;;
46729;SDS011;32476;50.002;11.854;2023-12-20T12:42:44;5.10;;;2.90;;
46729;SDS011;32476;50.002;11.854;2023-12-20T12:45:11;9.30;;;3.27;;
46729;SDS011;32476;50.002;11.854;2023-12-20T12:47:37;8.20;;;3.37;;
46729;SDS011;32476;50.002;11.854;2023-12-20T12:50:05;10.90;;;2.93;;
46729;SDS011;32476;50.002;11.854;2023-12-20T12:52:32;8.43;;;2.93;;
46729;SDS011;32476;50.002;11.854;2023-12-20T12:54:58;8.70;;;3.60;;
46729;SDS011;32476;50.002;11.854;2023-12-20T12:57:26;5.00;;;2.93;;
46729;SDS011;32476;50.002;11.854;2023-12-20T12:59:52;7.17;;;3.00;;
46729;SDS011;32476;50.002;11.854;2023-12-20T13:02:18;6.30;;;3.33;;
46729;SDS011;32476;50.002;11.854;2023-12-20T13:04:45;9.13;;;2.70;;
46729;SDS011;32476;50.002;11.854;2023-12-20T13:07:11;10.73;;;3.20;;
46729;SDS011;32476;50.002;11.854;2023-12-20T13:09:38;9.43;;;3.03;;
46729;SDS011;32476;50.002;11.854;2023-12-20T13:12:06;5.17;;;2.40;;
46729;SDS011;32476;50.002;11.854;2023-12-20T13:14:33;6.37;;;2.37;;
46729;SDS011;32476;50.002;11.854;2023-12-20T13:17:00;10.17;;;2.53;;
46729;SDS011;32476;50.002;11.854;2023-12-20T13:19:28;6.43;;;2.57;;
46729;SDS011;32476;50.002;11.854;2023-12-20T13:21:55;8.97;;;2.83;;
46729;SDS011;32476;50.002;11.854;2023-12-20T13:24:21;6.67;;;2.70;;
46729;SDS011;32476;50.002;11.854;2023-12-20T13:26:49;7.43;;;2.60;;
46729;SDS011;32476;50.002;11.854;2023-12-20T13:29:19;8.03;;;2.30;;
46729;SDS011;32476;50.002;11.854;2023-12-20T13:31:49;3.70;;;2.00;;
46729;SDS011;32476;50.002;11.854;2023-12-20T13:34:15;6.60;;;2.60;;
46729;SDS011;32476;50.002;11.854;2023-12-20T13:36:43;8.00;;;2.80;;
46729;SDS011;32476;50.002;11.854;2023-12-20T13:39:27;5.77;;;2.40;;
46729;SDS011;32476;50.002;11.854;2023-12-20T13:41:55;5.00;;;1.93;;
46729;SDS011;32476;50.002;11.854;2023-12-20T13:44:23;7.77;;;2.50;;
46729;SDS011;32476;50.002;11.854;2023-12-20T13:46:49;7.27;;;2.00;;
46729;SDS011;32476;50.002;11.854;2023-12-20T13:49:15;10.30;;;2.47;;
46729;SDS011;32476;50.002;11.854;2023-12-20T13:51:43;9.33;;;2.03;;
46729;SDS011;32476;50.002;11.854;2023-12-20T13:54:09;6.33;;;1.83;;
46729;SDS011;32476;50.002;11.854;2023-12-20T13:56:36;6.53;;;2.50;;
46729;SDS011;32476;50.002;11.854;2023-12-20T13:59:03;9.00;;;2.20;;
46729;SDS011;32476;50.002;11.854;2023-12-20T14:01:29;10.97;;;1.97;;
46729;SDS011;32476;50.002;11.854;2023-12-20T14:03:55;4.23;;;1.80;;
46729;SDS011;32476;50.002;11.854;2023-12-20T14:06:22;6.77;;;1.80;;
46729;SDS011;32476;50.002;11.854;2023-12-20T14:08:48;5.50;;;2.00;;
46729;SDS011;32476;50.002;11.854;2023-12-20T14:11:14;7.47;;;2.03;;
46729;SDS011;32476;50.002;11.854;2023-12-20T14:13:42;4.50;;;2.20;;
46729;SDS011;32476;50.002;11.854;2023-12-20T14:16:08;5.67;;;1.90;;
46729;SDS011;32476;50.002;11.854;2023-12-20T14:18:41;6.47;;;2.53;;
46729;SDS011;32476;50.002;11.854;2023-12-20T14:21:08;5.60;;;2.30;;
46729;SDS011;32476;50.002;11.854;2023-12-20T14:23:34;6.87;;;2.40;;
46729;SDS011;32476;50.002;11.854;2023-12-20T14:26:00;5.70;;;2.70;;
46729;SDS011;32476;50.002;11.854;2023-12-20T14:28:32;7.47;;;2.73;;
46729;SDS011;32476;50.002;11.854;2023-12-20T14:30:58;5.07;;;2.27;;
46729;SDS011;32476;50.002;11.854;2023-12-20T14:33:24;9.97;;;2.73;;
46729;SDS011;32476;50.002;11.854;2023-12-20T14:35:52;8.97;;;2.73;;
46729;SDS011;32476;50.002;11.854;2023-12-20T14:38:18;9.73;;;2.80;;
46729;SDS011;32476;50.002;11.854;2023-12-20T14:40:47;7.43;;;3.07;;
46729;SDS011;32476;50.002;11.854;2023-12-20T14:43:14;10.03;;;2.87;;
46729;SDS011;32476;50.002;11.854;2023-12-20T14:45:41;10.87;;;2.93;;
46729;SDS011;32476;50.002;11.854;2023-12-20T14:48:08;8.83;;;2.67;;